KFDR/FDR METAR and TAF weather

Enter ICAO airport designator
Station Type Date Time Source
KFDR METAR 2020/01/27 13:53 UTC NOAA

KFDR 271353Z AUTO 10004KT 8SM CLR 02/01 A2997 RMK AO2 SLP148 T00220011


Station Type Date Time Source
KFDR Decoded METAR 2020/01/27 13:53 UTC NOAA

FREDERICK MUNICIPAL AIRPORT, OK, United States (KFDR) 34-21N 98-59W 377M
Jan 27, 2020 - 08:53 AM EST / 2020.01.27 1353 UTC
Wind: from the E (100 degrees) at 5 MPH (4 KT):0
Visibility: 8 mile(s):0
Sky conditions: clear
Temperature: 36.0 F (2.2 C)
Dew Point: 34.0 F (1.1 C)
Relative Humidity: 92%
Pressure (altimeter): 29.97 in. Hg (1014 hPa)
ob: KFDR 271353Z AUTO 10004KT 8SM CLR 02/01 A2997 RMK AO2 SLP148 T00220011
cycle: 14

Station Type Date Time Source
KFDR TAF UTC NOAA

Error!

Example: see airport list